Time;durP1;ratioP1;P1;durP2;ratioP2;P2;SDS_P1;SDS_P2;PMS_P1;PMS_P2;Temp;Humidity;BMP_temperature;BMP_pressure;BME280_temperature;BME280_humidity;BME280_pressure;Samples;Min_cycle;Max_cycle;Signal;HPM_P1;HPM_P2
2022/06/08 00:00:22;;;;;;;7.85;3.97;;;22.50;59.40;;;;;;4993168;28;20025;-70
2022/06/08 00:03:03;;;;;;;7.40;3.90;;;22.50;59.50;;;;;;4976073;28;20026;-69
2022/06/08 00:05:29;;;;;;;8.57;4.30;;;22.50;59.50;;;;;;4992914;28;20032;-70
2022/06/08 00:07:55;;;;;;;8.80;4.30;;;22.50;59.50;;;;;;4993308;28;20042;-70
2022/06/08 00:10:21;;;;;;;8.40;4.22;;;22.50;59.50;;;;;;4959623;28;20034;-70
2022/06/08 00:12:47;;;;;;;9.68;4.13;;;22.50;59.40;;;;;;4993324;28;20027;-70
2022/06/08 00:15:16;;;;;;;8.13;4.13;;;22.50;59.50;;;;;;4975719;28;20035;-70
2022/06/08 00:17:42;;;;;;;9.48;4.13;;;22.50;59.50;;;;;;4943665;28;20032;-70
2022/06/08 00:20:10;;;;;;;6.65;4.05;;;22.50;59.50;;;;;;4992749;28;20029;-70
2022/06/08 00:22:36;;;;;;;8.20;3.78;;;22.50;59.40;;;;;;4975444;28;20494;-70
2022/06/08 00:25:06;;;;;;;7.65;3.88;;;22.60;59.50;;;;;;4975343;28;20814;-69
2022/06/08 00:27:32;;;;;;;6.97;3.83;;;22.60;59.50;;;;;;4975473;28;20045;-70
2022/06/08 00:29:59;;;;;;;9.95;3.72;;;22.50;59.50;;;;;;4992979;28;20114;-70
2022/06/08 00:32:25;;;;;;;7.65;3.60;;;22.50;59.50;;;;;;4993009;28;20479;-70
2022/06/08 00:34:54;;;;;;;8.70;4.10;;;22.50;59.30;;;;;;4992070;28;20069;-70
2022/06/08 00:37:24;;;;;;;6.95;4.10;;;22.50;59.40;;;;;;4975234;28;20523;-70
2022/06/08 00:39:50;;;;;;;15.20;4.82;;;22.50;59.30;;;;;;4943598;28;20034;-71
2022/06/08 00:42:16;;;;;;;12.15;5.20;;;22.50;60.90;;;;;;4992755;28;20058;-71
2022/06/08 00:44:49;;;;;;;13.60;5.82;;;22.60;62.40;;;;;;4975043;28;20065;-73
2022/06/08 00:47:19;;;;;;;11.35;4.65;;;22.60;61.90;;;;;;4959029;28;20026;-72
2022/06/08 00:50:03;;;;;;;8.73;4.18;;;22.60;60.20;;;;;;4992191;28;20037;-69
2022/06/08 00:52:34;;;;;;;10.38;4.45;;;22.50;60.30;;;;;;4975199;28;20030;-69
2022/06/08 00:55:06;;;;;;;12.02;3.80;;;22.50;60.40;;;;;;4974480;28;20038;-69
2022/06/08 00:57:41;;;;;;;13.88;4.75;;;22.40;57.90;;;;;;4974775;28;20447;-68
2022/06/08 01:00:14;;;;;;;14.98;4.13;;;22.40;60.00;;;;;;4975305;28;20472;-68
2022/06/08 01:02:46;;;;;;;8.52;3.30;;;22.40;58.00;;;;;;4975346;28;20054;-68
2022/06/08 01:05:23;;;;;;;17.25;4.13;;;22.40;59.30;;;;;;4974719;28;20027;-68
2022/06/08 01:07:53;;;;;;;10.30;3.33;;;22.40;58.00;;;;;;4974798;28;20041;-68
2022/06/08 01:10:23;;;;;;;6.93;3.33;;;22.30;57.20;;;;;;4958580;28;20089;-68
2022/06/08 01:12:54;;;;;;;8.82;3.80;;;22.40;57.60;;;;;;4975568;28;20388;-68
2022/06/08 01:15:25;;;;;;;7.80;3.55;;;22.30;56.40;;;;;;4958557;28;20034;-68
2022/06/08 01:17:51;;;;;;;9.55;3.20;;;22.30;55.70;;;;;;4974536;28;20109;-68
2022/06/08 01:20:20;;;;;;;8.48;3.65;;;22.30;56.30;;;;;;4974612;28;20043;-68
2022/06/08 01:22:46;;;;;;;6.55;3.08;;;22.30;55.60;;;;;;4991901;28;20030;-68
2022/06/08 01:25:15;;;;;;;11.18;3.92;;;22.20;55.60;;;;;;4980496;28;20413;-68
2022/06/08 01:28:11;;;;;;;9.98;5.50;;;22.20;55.90;;;;;;4977185;28;20465;-68
2022/06/08 01:30:44;;;;;;;24.77;15.45;;;22.20;55.00;;;;;;4994032;28;20121;-68
2022/06/08 01:33:34;;;;;;;24.15;12.60;;;22.20;54.70;;;;;;4977730;28;20041;-68
2022/06/08 01:36:09;;;;;;;21.23;8.95;;;22.20;54.80;;;;;;4993638;28;20080;-68
2022/06/08 01:38:41;;;;;;;15.23;8.50;;;22.20;55.00;;;;;;4993685;28;20029;-68
2022/06/08 01:41:44;;;;;;;13.10;5.70;;;22.20;55.00;;;;;;4977392;28;20667;-68
2022/06/08 01:44:34;;;;;;;9.07;4.68;;;22.20;54.40;;;;;;4960030;28;20437;-68
2022/06/08 01:47:17;;;;;;;9.45;4.28;;;22.20;54.40;;;;;;4993614;28;20022;-68
2022/06/08 01:49:57;;;;;;;9.05;3.60;;;22.10;54.40;;;;;;5011059;28;20042;-68
2022/06/08 01:52:44;;;;;;;6.80;3.42;;;22.10;54.40;;;;;;4993541;28;20565;-67
2022/06/08 01:55:18;;;;;;;7.40;3.83;;;22.10;54.20;;;;;;4977510;28;20433;-68
2022/06/08 01:57:44;;;;;;;8.27;4.15;;;22.10;54.20;;;;;;4993049;28;20076;-67
2022/06/08 02:00:16;;;;;;;9.52;4.13;;;22.10;54.60;;;;;;4993535;28;20385;-70
2022/06/08 02:03:00;;;;;;;12.73;4.50;;;22.10;54.50;;;;;;5014817;28;20022;-71
2022/06/08 02:05:43;;;;;;;13.48;3.70;;;22.10;54.30;;;;;;5013853;28;20044;-70
2022/06/08 02:08:40;;;;;;;7.72;3.63;;;22.20;54.30;;;;;;4981114;28;20116;-71
2022/06/08 02:11:24;;;;;;;7.70;3.15;;;22.20;54.30;;;;;;4997496;28;20502;-70
2022/06/08 02:14:03;;;;;;;6.53;3.40;;;22.30;54.40;;;;;;4997371;28;20032;-71
2022/06/08 02:16:38;;;;;;;8.02;3.60;;;22.30;54.60;;;;;;5013880;28;20109;-71
2022/06/08 02:19:39;;;;;;;7.63;3.58;;;22.30;54.70;;;;;;5014628;28;20025;-71
2022/06/08 02:22:31;;;;;;;12.50;4.07;;;22.30;54.90;;;;;;4997626;28;20034;-71
2022/06/08 02:25:01;;;;;;;7.28;3.80;;;22.40;54.90;;;;;;4997093;28;20045;-70
2022/06/08 02:27:41;;;;;;;7.80;3.63;;;22.40;55.00;;;;;;4997058;28;20422;-70
2022/06/08 02:30:07;;;;;;;;;;;22.40;55.10;;;;;;4981467;28;20045;-70
2022/06/08 02:36:18;;;;;;;10.85;3.40;;;22.40;55.30;;;;;;4972106;28;20057;-70
2022/06/08 02:39:09;;;;;;;9.05;3.63;;;22.40;55.30;;;;;;4996696;28;20105;-71
2022/06/08 02:41:37;;;;;;;9.93;3.63;;;22.40;55.40;;;;;;4996635;28;20433;-71
2022/06/08 02:44:07;;;;;;;;;;;22.40;55.60;;;;;;4997193;28;20573;-71
2022/06/08 02:46:46;;;;;;;11.63;3.83;;;22.40;55.70;;;;;;5013149;28;19953;-69
2022/06/08 02:49:14;;;;;;;12.98;3.83;;;22.40;55.70;;;;;;5014148;28;20029;-71
2022/06/08 02:51:49;;;;;;;9.18;3.38;;;22.40;55.80;;;;;;4996709;28;20060;-72
2022/06/08 02:54:21;;;;;;;8.93;3.42;;;22.40;55.70;;;;;;4996394;28;20434;-71
2022/06/08 02:57:09;;;;;;;8.35;3.58;;;22.40;56.10;;;;;;4996819;28;20554;-69
2022/06/08 03:00:05;;;;;;;10.50;3.65;;;22.40;56.00;;;;;;4996241;28;20037;-69
2022/06/08 03:02:42;;;;;;;11.90;3.80;;;22.40;56.30;;;;;;4996713;28;20030;-69
2022/06/08 03:05:29;;;;;;;9.98;3.47;;;22.40;56.30;;;;;;4996219;28;20038;-69
2022/06/08 03:08:06;;;;;;;8.30;3.70;;;22.40;56.50;;;;;;4980040;28;20034;-69
2022/06/08 03:10:36;;;;;;;9.07;3.28;;;22.40;56.50;;;;;;4996166;28;20040;-69
2022/06/08 03:13:16;;;;;;;10.98;3.70;;;22.40;56.50;;;;;;4996124;28;20038;-69
2022/06/08 03:15:48;;;;;;;10.02;3.75;;;22.40;56.60;;;;;;4996177;28;20088;-69
2022/06/08 03:18:14;;;;;;;10.02;3.40;;;22.40;56.40;;;;;;4996186;28;20033;-69
2022/06/08 03:20:41;;;;;;;9.07;3.60;;;22.40;56.60;;;;;;4996117;28;20029;-69
2022/06/08 03:23:08;;;;;;;11.65;3.83;;;22.40;56.60;;;;;;4996215;28;20029;-69
2022/06/08 03:25:35;;;;;;;10.27;3.67;;;22.40;56.50;;;;;;4995874;28;20119;-69
2022/06/08 03:28:02;;;;;;;10.25;3.55;;;22.40;56.80;;;;;;4995871;28;20037;-69
2022/06/08 03:30:28;;;;;;;9.65;3.55;;;22.40;56.90;;;;;;4995846;28;20037;-69
2022/06/08 03:32:55;;;;;;;10.95;3.80;;;22.40;56.90;;;;;;4995867;28;20038;-69
2022/06/08 03:35:23;;;;;;;11.57;3.28;;;22.40;57.00;;;;;;4979251;28;20033;-70
2022/06/08 03:37:49;;;;;;;12.68;3.60;;;22.40;56.90;;;;;;4979709;28;20026;-70
2022/06/08 03:40:17;;;;;;;9.68;3.10;;;22.40;57.00;;;;;;4995805;28;20065;-69
2022/06/08 03:42:43;;;;;;;8.85;3.53;;;22.40;57.00;;;;;;4995993;28;20065;-69
2022/06/08 03:45:10;;;;;;;11.13;3.95;;;22.40;57.20;;;;;;4995700;28;20081;-69
2022/06/08 03:47:44;;;;;;;11.45;3.58;;;22.40;57.00;;;;;;5013203;28;20093;-69
2022/06/08 03:50:13;;;;;;;8.20;3.15;;;22.40;57.20;;;;;;4995450;28;20068;-69
2022/06/08 03:52:44;;;;;;;6.00;3.35;;;22.40;57.10;;;;;;4995840;28;20033;-69
2022/06/08 03:55:12;;;;;;;7.30;3.22;;;22.40;57.10;;;;;;4995378;28;20084;-68
2022/06/08 03:57:44;;;;;;;12.48;3.60;;;22.40;57.30;;;;;;5012937;28;20394;-71
2022/06/08 04:00:12;;;;;;;9.85;3.30;;;22.40;57.60;;;;;;4995482;28;20097;-71
2022/06/08 04:02:54;;;;;;;8.82;3.08;;;22.40;57.70;;;;;;4995741;28;20038;-71
2022/06/08 04:05:25;;;;;;;12.93;3.83;;;22.40;57.60;;;;;;4995144;28;20065;-69
2022/06/08 04:07:52;;;;;;;7.82;3.47;;;22.50;57.90;;;;;;4995356;28;20537;-69
2022/06/08 04:10:18;;;;;;;10.40;3.30;;;22.50;57.90;;;;;;4995030;28;20038;-69
2022/06/08 04:12:44;;;;;;;11.63;3.63;;;22.50;57.80;;;;;;4995617;28;20038;-69
2022/06/08 04:15:41;;;;;;;10.02;3.30;;;22.50;57.70;;;;;;4978846;28;20038;-69
2022/06/08 04:17:57;;;;;;;11.75;3.50;;;22.50;57.90;;;;;;4994932;28;20372;-69
2022/06/08 04:20:24;;;;;;;10.35;3.25;;;22.50;58.00;;;;;;4994901;28;20088;-69
2022/06/08 04:22:50;;;;;;;9.70;3.63;;;22.50;58.00;;;;;;4995192;28;20034;-69
2022/06/08 04:25:16;;;;;;;9.23;3.40;;;22.50;58.10;;;;;;4994465;28;20039;-70
2022/06/08 04:27:49;;;;;;;7.43;2.92;;;22.50;58.00;;;;;;4994857;28;20038;-70
2022/06/08 04:30:15;;;;;;;7.90;3.40;;;22.40;58.00;;;;;;4994631;28;20112;-70
2022/06/08 04:32:42;;;;;;;7.47;3.00;;;22.50;57.80;;;;;;4995014;28;20033;-71
2022/06/08 04:35:10;;;;;;;9.30;3.33;;;22.50;58.00;;;;;;4994534;28;20030;-70
2022/06/08 04:37:37;;;;;;;11.48;3.60;;;22.40;57.90;;;;;;4994684;28;20060;-70
2022/06/08 04:40:06;;;;;;;8.68;3.20;;;22.50;58.30;;;;;;4994388;28;20042;-70
2022/06/08 04:42:32;;;;;;;12.10;3.70;;;22.50;58.20;;;;;;4994725;28;20117;-71
2022/06/08 04:45:00;;;;;;;8.30;3.08;;;22.50;58.30;;;;;;4994440;28;20111;-70
2022/06/08 04:47:26;;;;;;;8.55;3.10;;;22.50;58.30;;;;;;4994220;28;20105;-70
2022/06/08 04:49:52;;;;;;;13.18;3.47;;;22.50;58.10;;;;;;4994836;28;20061;-71
2022/06/08 04:52:19;;;;;;;7.50;2.78;;;22.50;58.30;;;;;;4994447;28;20030;-71
2022/06/08 04:54:45;;;;;;;6.72;2.97;;;22.40;58.20;;;;;;4994403;28;20026;-70
2022/06/08 04:57:13;;;;;;;9.75;3.60;;;22.40;58.20;;;;;;4979727;28;20034;-71
2022/06/08 04:59:40;;;;;;;11.55;3.50;;;22.50;58.80;;;;;;4974359;28;20054;-72
2022/06/08 05:05:13;;;;;;;11.80;3.30;;;22.50;58.70;;;;;;4974825;28;20030;-71
2022/06/08 05:07:40;;;;;;;9.20;3.40;;;22.50;58.80;;;;;;4974315;28;20058;-71
2022/06/08 05:10:08;;;;;;;9.23;3.60;;;22.50;58.80;;;;;;4975034;28;20084;-71
2022/06/08 05:12:36;;;;;;;9.48;3.35;;;22.50;58.80;;;;;;4957670;28;20060;-71
2022/06/08 05:15:08;;;;;;;11.63;3.47;;;22.50;58.70;;;;;;4974222;28;20398;-71
2022/06/08 05:17:35;;;;;;;9.25;3.67;;;22.50;58.70;;;;;;4974269;28;20030;-71
2022/06/08 05:20:03;;;;;;;9.30;3.28;;;22.50;58.80;;;;;;4974526;28;20085;-71
2022/06/08 05:22:31;;;;;;;6.43;3.13;;;22.50;58.40;;;;;;4958479;28;20037;-71
2022/06/08 05:24:57;;;;;;;10.13;3.33;;;22.50;58.40;;;;;;4958345;28;20518;-71
2022/06/08 05:27:25;;;;;;;11.23;3.58;;;22.50;58.80;;;;;;4973931;28;20037;-71
2022/06/08 05:29:52;;;;;;;9.55;3.83;;;22.50;58.90;;;;;;4958565;28;20038;-71
2022/06/08 05:32:18;;;;;;;8.25;3.33;;;22.50;58.90;;;;;;4974290;28;20057;-71
2022/06/08 05:34:44;;;;;;;10.07;3.13;;;22.50;58.50;;;;;;4970478;23;21154;-75
2022/06/08 05:37:12;;;;;;;7.82;3.70;;;22.50;58.50;;;;;;4989158;28;20033;-74
2022/06/08 05:39:38;;;;;;;15.95;4.07;;;22.50;59.00;;;;;;4990217;28;20332;-74
2022/06/08 05:42:05;;;;;;;11.20;3.50;;;22.50;59.00;;;;;;4991019;28;20043;-75
2022/06/08 05:44:32;;;;;;;8.07;3.10;;;22.50;59.10;;;;;;4990776;28;20030;-74
2022/06/08 05:46:59;;;;;;;10.18;3.42;;;22.50;58.80;;;;;;4990591;28;20503;-74
2022/06/08 05:49:25;;;;;;;15.00;3.67;;;22.50;59.10;;;;;;4990382;28;20029;-74
2022/06/08 05:51:55;;;;;;;10.35;2.97;;;22.50;59.20;;;;;;4974598;28;20032;-75
2022/06/08 05:54:26;;;;;;;10.38;3.45;;;22.50;59.20;;;;;;4974852;28;20050;-75
2022/06/08 05:56:52;;;;;;;9.20;3.05;;;22.50;59.30;;;;;;4990290;28;20098;-74
2022/06/08 05:59:21;;;;;;;9.33;3.27;;;22.50;59.10;;;;;;4990040;28;20027;-75
2022/06/08 06:01:46;;;;;;;11.63;3.22;;;22.50;59.20;;;;;;4990610;28;20038;-75
2022/06/08 06:04:13;;;;;;;8.93;3.22;;;22.50;59.30;;;;;;4990358;28;20030;-75
2022/06/08 06:06:43;;;;;;;8.68;3.25;;;22.50;59.10;;;;;;4990142;28;20042;-75
2022/06/08 06:09:10;;;;;;;14.32;3.38;;;22.50;59.30;;;;;;4990074;28;20036;-75
2022/06/08 06:11:37;;;;;;;7.28;3.00;;;22.50;59.10;;;;;;4990299;28;20431;-74
2022/06/08 06:14:04;;;;;;;8.15;3.20;;;22.50;59.20;;;;;;4990278;28;20442;-74
2022/06/08 06:16:32;;;;;;;9.82;2.90;;;22.50;59.10;;;;;;4990122;28;20372;-74
2022/06/08 06:18:58;;;;;;;8.45;3.50;;;22.60;59.10;;;;;;4990016;28;20054;-75
2022/06/08 06:21:51;;;;;;;7.22;3.08;;;22.50;59.20;;;;;;4991314;28;20073;-75
2022/06/08 06:24:35;;;;;;;12.73;4.00;;;22.50;59.10;;;;;;4991110;28;20442;-75
2022/06/08 06:27:04;;;;;;;8.23;3.00;;;22.50;59.30;;;;;;4991494;28;20491;-74
2022/06/08 06:29:56;;;;;;;8.10;3.17;;;22.50;59.30;;;;;;4990146;28;20034;-75
2022/06/08 06:32:44;;;;;;;8.10;2.83;;;22.60;59.30;;;;;;4991165;28;20675;-74
2022/06/08 06:35:24;;;;;;;7.03;3.55;;;22.60;59.50;;;;;;4989940;28;20027;-74
2022/06/08 06:37:52;;;;;;;8.73;2.70;;;22.50;59.40;;;;;;4989981;28;20027;-74
2022/06/08 06:40:20;;;;;;;10.95;3.30;;;22.60;59.60;;;;;;4989917;28;20097;-75
2022/06/08 06:42:47;;;;;;;8.25;3.30;;;22.50;59.50;;;;;;4989947;28;20495;-74
2022/06/08 06:45:31;;;;;;;10.57;3.25;;;22.60;59.20;;;;;;4991203;28;20506;-75
2022/06/08 06:48:11;;;;;;;;;;;22.50;59.20;;;;;;4993263;28;20070;-75
2022/06/08 06:50:38;;;;;;;11.32;3.28;;;22.60;59.70;;;;;;4995020;28;19937;-75
2022/06/08 06:53:04;;;;;;;9.50;3.80;;;22.50;59.70;;;;;;4993519;28;20034;-76
2022/06/08 06:55:33;;;;;;;11.10;3.20;;;22.60;59.30;;;;;;4993234;28;20038;-76
2022/06/08 06:58:06;;;;;;;9.82;3.30;;;22.60;59.60;;;;;;4993407;28;20081;-74
2022/06/08 07:00:34;;;;;;;9.05;3.45;;;22.50;59.70;;;;;;4993327;28;20390;-74
2022/06/08 07:03:04;;;;;;;12.90;3.13;;;22.50;59.80;;;;;;4993260;28;20499;-74
2022/06/08 07:05:33;;;;;;;11.82;3.45;;;22.60;59.90;;;;;;4976861;28;20406;-75
2022/06/08 07:08:00;;;;;;;8.50;3.15;;;22.60;59.90;;;;;;4961384;28;20034;-75
2022/06/08 07:10:27;;;;;;;7.43;3.15;;;22.60;59.90;;;;;;4992773;28;20525;-75
2022/06/08 07:12:53;;;;;;;10.10;2.75;;;22.60;60.00;;;;;;4976983;28;20030;-75
2022/06/08 07:15:21;;;;;;;11.90;3.63;;;22.60;59.90;;;;;;4993209;28;20051;-75
2022/06/08 07:17:49;;;;;;;9.90;3.70;;;22.60;60.00;;;;;;4992610;28;20053;-74
2022/06/08 07:20:15;;;;;;;12.23;3.38;;;22.60;59.90;;;;;;4994752;28;20053;-75
2022/06/08 07:22:41;;;;;;;10.55;2.97;;;22.60;59.90;;;;;;4992756;28;20023;-75
2022/06/08 07:25:08;;;;;;;10.10;3.40;;;22.60;59.70;;;;;;4994193;28;20034;-75
2022/06/08 07:27:35;;;;;;;10.30;3.15;;;22.60;60.00;;;;;;4993637;28;20114;-75
2022/06/08 07:30:04;;;;;;;12.50;4.10;;;22.60;59.90;;;;;;4994091;28;20073;-74
2022/06/08 07:32:30;;;;;;;14.15;3.30;;;22.60;60.00;;;;;;4992559;28;20030;-73
2022/06/08 07:34:55;;;;;;;11.30;3.20;;;22.60;60.00;;;;;;4992455;28;20474;-74
2022/06/08 07:37:23;;;;;;;16.95;3.92;;;22.60;60.00;;;;;;4993186;28;20030;-73
2022/06/08 07:39:50;;;;;;;10.30;3.72;;;22.60;60.80;;;;;;4994037;28;20069;-73
2022/06/08 07:42:17;;;;;;;13.63;4.38;;;22.70;60.60;;;;;;4990334;28;20054;-74
2022/06/08 07:44:44;;;;;;;12.82;4.13;;;22.70;61.30;;;;;;4991188;28;20401;-73
2022/06/08 07:47:10;;;;;;;11.30;4.80;;;22.70;61.10;;;;;;4993243;28;20038;-73
2022/06/08 07:49:39;;;;;;;12.30;5.10;;;22.70;62.60;;;;;;4990936;28;20038;-73
2022/06/08 07:52:11;;;;;;;10.50;4.22;;;22.80;61.80;;;;;;4991509;28;20493;-73
2022/06/08 07:54:38;;;;;;;14.63;4.55;;;22.80;61.10;;;;;;4987703;28;20030;-73
2022/06/08 07:57:05;;;;;;;13.23;4.20;;;22.80;62.40;;;;;;4991600;28;20026;-73
2022/06/08 07:59:33;;;;;;;9.23;4.20;;;22.80;61.90;;;;;;4990809;28;20109;-73
2022/06/08 08:02:00;;;;;;;11.40;3.70;;;22.80;61.70;;;;;;4990204;28;20101;-73
2022/06/08 08:04:26;;;;;;;11.93;4.10;;;22.80;61.40;;;;;;4991111;28;20030;-73
2022/06/08 08:06:52;;;;;;;12.80;4.22;;;22.80;61.40;;;;;;4993761;28;20033;-73
2022/06/08 08:09:18;;;;;;;11.38;3.78;;;22.80;61.60;;;;;;4989804;28;20030;-73
2022/06/08 08:11:46;;;;;;;15.23;4.25;;;22.80;61.60;;;;;;4991363;28;20394;-73
2022/06/08 08:14:13;;;;;;;10.65;4.22;;;22.80;61.50;;;;;;4991385;28;20034;-73
2022/06/08 08:16:40;;;;;;;9.45;3.40;;;22.80;61.20;;;;;;4990094;28;20074;-73
2022/06/08 08:19:06;;;;;;;11.75;4.57;;;22.80;61.20;;;;;;4989397;28;20058;-73
2022/06/08 08:21:32;;;;;;;11.52;3.53;;;22.80;61.40;;;;;;4988067;28;20112;-73
2022/06/08 08:23:59;;;;;;;9.93;3.58;;;22.80;61.50;;;;;;4991098;28;20022;-73
2022/06/08 08:26:28;;;;;;;13.00;4.10;;;22.80;61.40;;;;;;4990762;28;20495;-73
2022/06/08 08:28:55;;;;;;;9.93;3.33;;;22.80;61.40;;;;;;4991126;28;20057;-73
2022/06/08 08:31:21;;;;;;;10.48;3.90;;;22.70;61.40;;;;;;4973263;28;20491;-73
2022/06/08 08:33:47;;;;;;;10.65;3.75;;;22.80;61.40;;;;;;4989395;28;20106;-73
2022/06/08 08:36:13;;;;;;;10.77;3.75;;;22.70;61.70;;;;;;4990713;28;20034;-73
2022/06/08 08:38:39;;;;;;;11.50;3.90;;;22.70;61.60;;;;;;4990847;28;20026;-73
2022/06/08 08:42:20;;;;;;;9.40;3.35;;;22.80;61.60;;;;;;4990015;28;20034;-71
2022/06/08 08:43:52;;;;;;;13.98;4.18;;;22.70;61.50;;;;;;4991053;28;20033;-71
2022/06/08 08:46:28;;;;;;;9.82;3.20;;;22.70;61.60;;;;;;4989671;28;20027;-72
2022/06/08 08:49:03;;;;;;;9.75;4.53;;;22.70;61.50;;;;;;4990518;28;20041;-71
2022/06/08 08:51:41;;;;;;;11.45;5.22;;;22.70;60.80;;;;;;4990611;28;20491;-72
2022/06/08 08:54:22;;;;;;;13.93;5.00;;;22.70;60.80;;;;;;4989662;28;20441;-71
2022/06/08 08:56:50;;;;;;;10.77;4.68;;;22.70;60.10;;;;;;4990326;28;20034;-71
2022/06/08 08:59:22;;;;;;;10.68;4.20;;;22.70;59.80;;;;;;4990506;28;20402;-71
2022/06/08 09:01:55;;;;;;;10.43;4.10;;;22.80;60.40;;;;;;4990910;28;20026;-71
2022/06/08 09:04:33;;;;;;;10.32;3.72;;;22.80;59.70;;;;;;4990232;28;20057;-71
2022/06/08 09:07:17;;;;;;;11.33;3.53;;;22.80;59.50;;;;;;4990329;28;20027;-72
2022/06/08 09:09:43;;;;;;;8.40;3.30;;;22.80;59.20;;;;;;4989388;28;20042;-72
2022/06/08 09:12:14;;;;;;;10.43;3.22;;;22.80;59.70;;;;;;4989334;28;20042;-72
2022/06/08 09:14:50;;;;;;;11.50;3.13;;;22.80;59.10;;;;;;4973623;28;20030;-73
2022/06/08 09:17:37;;;;;;;7.32;2.58;;;22.80;59.00;;;;;;4990222;28;20034;-72
2022/06/08 09:20:15;;;;;;;8.57;3.00;;;22.80;58.80;;;;;;4989079;28;20561;-73
2022/06/08 09:22:48;;;;;;;10.13;3.25;;;22.80;58.80;;;;;;4973603;28;20550;-72
2022/06/08 09:25:26;;;;;;;8.48;2.88;;;22.80;58.70;;;;;;4988974;28;20066;-72
2022/06/08 09:27:55;;;;;;;15.82;3.75;;;22.80;59.00;;;;;;4989705;28;20059;-73
2022/06/08 09:30:27;;;;;;;22.95;4.13;;;22.70;59.50;;;;;;4986944;28;20439;-72
2022/06/08 09:32:59;;;;;;;25.77;4.65;;;22.80;59.50;;;;;;4990170;28;20110;-72
2022/06/08 09:35:26;;;;;;;25.48;3.95;;;22.80;59.40;;;;;;4989760;28;20126;-71
2022/06/08 09:37:54;;;;;;;15.75;4.20;;;22.80;59.20;;;;;;4989797;28;20105;-72
2022/06/08 09:40:36;;;;;;;16.95;3.70;;;22.80;59.90;;;;;;4990144;28;20403;-72
2022/06/08 09:43:26;;;;;;;19.15;4.05;;;22.80;59.60;;;;;;4986676;28;20109;-72
2022/06/08 09:46:07;;;;;;;15.32;3.42;;;22.80;59.90;;;;;;4989195;28;20049;-73
2022/06/08 09:52:08;;;;;;;14.50;3.20;;;22.80;59.40;;;;;;4991857;28;20031;-72
2022/06/08 09:54:54;;;;;;;24.98;3.63;;;22.80;60.30;;;;;;4990231;28;20149;-71
2022/06/08 09:57:32;;;;;;;17.02;3.58;;;22.80;60.50;;;;;;4990978;28;20062;-72
2022/06/08 10:00:20;;;;;;;14.10;3.05;;;22.80;60.60;;;;;;4991881;28;20399;-71
2022/06/08 10:03:24;;;;;;;12.88;2.83;;;22.90;61.20;;;;;;4983702;28;20574;-71
2022/06/08 10:06:09;;;;;;;7.63;2.80;;;22.90;61.00;;;;;;4989152;28;20522;-72
2022/06/08 10:09:00;;;;;;;10.75;3.10;;;22.80;61.50;;;;;;4989532;28;20045;-71
2022/06/08 10:11:45;;;;;;;12.27;2.95;;;22.80;61.00;;;;;;4989861;28;20105;-71
2022/06/08 10:14:33;;;;;;;11.45;3.08;;;22.80;61.10;;;;;;4989506;28;20513;-70
2022/06/08 10:17:18;;;;;;;11.02;3.25;;;22.90;61.10;;;;;;4989308;28;20046;-71
2022/06/08 10:20:31;;;;;;;10.07;3.00;;;22.80;60.70;;;;;;4973590;28;20030;-72
2022/06/08 10:23:07;;;;;;;10.73;2.95;;;22.80;60.30;;;;;;4992615;28;20403;-72
2022/06/08 10:25:44;;;;;;;5.47;2.63;;;22.90;60.80;;;;;;4992069;28;20113;-73
2022/06/08 10:28:22;;;;;;;10.07;2.90;;;22.90;60.30;;;;;;4975450;28;20032;-72
2022/06/08 10:30:57;;;;;;;8.27;2.75;;;22.90;60.30;;;;;;4992471;28;20027;-74
2022/06/08 10:33:41;;;;;;;7.68;2.50;;;22.90;59.60;;;;;;4973717;28;20031;-72
2022/06/08 10:36:10;;;;;;;7.32;2.70;;;22.90;60.20;;;;;;4992071;28;20045;-72
2022/06/08 10:38:42;;;;;;;9.02;3.03;;;22.90;60.00;;;;;;4992951;28;20035;-73
2022/06/08 10:43:56;;;;;;;11.77;3.33;;;22.90;59.80;;;;;;4992149;28;20057;-73
2022/06/08 10:46:48;;;;;;;8.68;2.72;;;22.90;59.60;;;;;;4993577;28;20022;-73
2022/06/08 10:49:32;;;;;;;9.45;3.15;;;22.90;59.90;;;;;;4991859;28;20034;-73
2022/06/08 10:52:13;;;;;;;12.70;3.10;;;22.90;59.30;;;;;;4993267;28;20030;-73
2022/06/08 10:54:53;;;;;;;7.53;3.10;;;22.90;59.40;;;;;;4993134;28;20042;-73
2022/06/08 10:57:31;;;;;;;6.25;3.10;;;22.90;59.80;;;;;;4992862;28;20096;-73
2022/06/08 11:00:19;;;;;;;8.63;3.17;;;22.90;58.70;;;;;;4993232;28;20034;-72
2022/06/08 11:02:51;;;;;;;6.10;2.78;;;22.90;58.00;;;;;;4992812;28;20077;-73
2022/06/08 11:05:32;;;;;;;8.25;2.78;;;22.90;58.10;;;;;;4991695;28;20126;-74
2022/06/08 11:08:01;;;;;;;6.97;2.60;;;23.00;56.90;;;;;;4991447;28;20046;-73
2022/06/08 11:10:43;;;;;;;8.70;3.08;;;22.90;57.70;;;;;;4991575;28;20042;-75
2022/06/08 11:13:24;;;;;;;7.38;2.55;;;22.90;56.60;;;;;;4993648;28;20399;-74
2022/06/08 11:16:06;;;;;;;8.50;2.65;;;22.90;57.30;;;;;;4976132;28;20034;-73
2022/06/08 11:18:42;;;;;;;5.22;2.38;;;22.90;57.30;;;;;;4992967;28;20543;-75
2022/06/08 11:21:13;;;;;;;10.23;2.78;;;23.00;57.80;;;;;;4994286;28;20022;-73
2022/06/08 11:23:47;;;;;;;15.23;3.42;;;22.90;58.00;;;;;;4994179;28;20023;-74
2022/06/08 11:26:20;;;;;;;12.40;3.17;;;22.90;63.70;;;;;;4990742;28;20081;-74
2022/06/08 11:28:56;;;;;;;14.98;3.90;;;22.90;61.20;;;;;;4959017;28;20030;-74
2022/06/08 11:31:25;;;;;;;11.18;3.35;;;23.00;65.60;;;;;;4992911;28;20113;-74
2022/06/08 11:34:06;;;;;;;7.37;2.83;;;22.90;63.60;;;;;;4992807;28;20049;-74
2022/06/08 11:36:53;;;;;;;9.20;3.03;;;22.90;60.70;;;;;;4993970;28;20034;-73
2022/06/08 11:39:37;;;;;;;6.93;2.58;;;22.90;61.20;;;;;;4993858;28;20080;-74
2022/06/08 11:42:24;;;;;;;7.75;2.20;;;22.90;59.50;;;;;;4976501;28;20058;-72
2022/06/08 11:45:14;;;;;;;6.28;2.42;;;22.90;58.50;;;;;;4993138;28;20036;-74
2022/06/08 11:47:48;;;;;;;7.22;2.22;;;23.00;57.80;;;;;;4992386;28;20165;-74
2022/06/08 11:50:16;;;;;;;10.13;2.50;;;23.00;58.30;;;;;;4992777;28;20026;-77
2022/06/08 11:52:46;;;;;;;13.80;2.92;;;23.00;59.40;;;;;;4976425;28;20503;-76
2022/06/08 11:55:19;;;;;;;10.38;3.03;;;23.10;59.50;;;;;;4993600;28;20086;-75
2022/06/08 11:58:16;;;;;;;6.07;2.25;;;23.10;60.30;;;;;;4992001;28;20105;-73
2022/06/08 12:00:42;;;;;;;4.85;2.40;;;23.10;61.40;;;;;;4993554;28;20109;-75
2022/06/08 12:03:17;;;;;;;7.85;3.95;;;23.10;59.70;;;;;;4993398;28;20058;-74
2022/06/08 12:05:48;;;;;;;21.13;8.68;;;23.10;59.60;;;;;;4993459;28;20076;-75
2022/06/08 12:08:45;;;;;;;24.63;16.52;;;23.10;59.60;;;;;;4992795;28;20364;-74
2022/06/08 12:11:15;;;;;;;21.60;12.25;;;23.10;59.30;;;;;;4990595;28;20057;-74
2022/06/08 12:14:02;;;;;;;19.85;11.20;;;23.10;60.80;;;;;;4993189;28;20038;-75
2022/06/08 12:20:09;;;;;;;18.80;10.60;;;23.20;61.70;;;;;;4949337;29;20570;-71
2022/06/08 12:22:36;;;;;;;20.85;10.38;;;23.20;62.50;;;;;;4912223;29;20039;-71
2022/06/08 12:25:21;;;;;;;16.50;7.63;;;23.20;64.70;;;;;;4949750;29;20032;-71
2022/06/08 12:28:00;;;;;;;17.65;8.82;;;23.20;61.40;;;;;;4934498;29;20042;-71
2022/06/08 12:30:35;;;;;;;17.75;8.07;;;23.30;63.70;;;;;;4934915;29;20043;-71
2022/06/08 12:33:19;;;;;;;14.52;7.25;;;23.30;63.20;;;;;;4934813;29;20397;-71
2022/06/08 12:35:58;;;;;;;13.95;7.05;;;23.30;61.90;;;;;;4930222;29;20406;-70
2022/06/08 12:38:24;;;;;;;20.70;6.47;;;23.30;63.10;;;;;;4932159;29;20031;-71
2022/06/08 12:41:02;;;;;;;13.75;6.20;;;23.30;65.10;;;;;;4948143;28;20027;-72
2022/06/08 12:44:05;;;;;;;15.98;6.63;;;23.30;64.40;;;;;;4932679;29;20028;-71
2022/06/08 12:46:35;;;;;;;12.63;5.60;;;23.30;66.20;;;;;;4917337;29;20046;-71
2022/06/08 12:49:16;;;;;;;11.10;5.90;;;23.30;65.10;;;;;;4946551;29;20043;-70
2022/06/08 12:51:47;;;;;;;13.98;6.10;;;23.30;65.10;;;;;;4931812;29;20497;-71
2022/06/08 12:54:22;;;;;;;12.43;5.57;;;23.30;66.70;;;;;;4932417;29;20035;-71
2022/06/08 12:56:52;;;;;;;11.77;6.13;;;23.30;64.30;;;;;;4932273;29;20032;-71
2022/06/08 12:59:19;;;;;;;11.20;4.10;;;23.30;66.40;;;;;;4932234;29;20111;-71
2022/06/08 13:01:45;;;;;;;6.40;3.75;;;23.30;62.40;;;;;;4932913;29;20471;-71
2022/06/08 13:04:21;;;;;;;4.90;2.70;;;23.20;58.60;;;;;;4932403;29;20114;-72
2022/06/08 13:06:47;;;;;;;5.15;2.50;;;23.30;56.20;;;;;;4932721;29;20090;-71
2022/06/08 13:09:15;;;;;;;3.70;1.90;;;23.30;55.80;;;;;;4930979;29;20536;-72
2022/06/08 13:11:43;;;;;;;4.25;2.03;;;23.30;55.10;;;;;;4931299;29;20071;-72
2022/06/08 13:14:17;;;;;;;4.05;1.95;;;23.30;56.10;;;;;;4932102;29;20040;-72
2022/06/08 13:16:44;;;;;;;3.15;1.77;;;23.30;55.10;;;;;;4946947;29;20905;-72
2022/06/08 13:19:12;;;;;;;5.25;1.50;;;23.30;54.50;;;;;;4931650;29;20032;-72
2022/06/08 13:21:39;;;;;;;4.00;1.40;;;23.30;55.00;;;;;;4932064;29;20294;-72
2022/06/08 13:24:05;;;;;;;5.15;1.45;;;23.30;55.20;;;;;;4931185;29;20031;-72
2022/06/08 13:26:34;;;;;;;12.55;7.30;;;23.30;54.10;;;;;;4932160;29;20043;-73
2022/06/08 13:29:02;;;;;;;11.40;5.75;;;23.30;54.00;;;;;;4931648;29;20040;-71